Météo Nord-Pas-de-Calais   La météo au plus près de chez vous

Station météorologique

Observations météo à Etoile (26124)

26124001 145 m Dernier relevé à 07:48
21.4°C
Humidité 77 % Vent 7.6 km/h

Journée consultée

Lundi 31 Août 2026

Synthèse de la journée

Périodes de référence en UTC

Température maximale

32.8°C

à 17:00

06h 06h

Température minimale

21°C

à 07:18

18h 18h

Rafale maximale

22 km/h

à 04:42

00h 00h

Précipitations

0 mm

Cumul quotidien

06h 06h

Ensoleillement

0h 4 mins

Durée quotidienne

00h 00h

Graphiques de la journée

Heure locale Réduire

Données détaillées

Relevés météo

Pas de 6 minutes Afficher les relevés infra-horaires
Relevés météo détaillés à Etoile pour le Lundi 31 Août 2026
Heure Température °C Point de rosée °C Humidité % Vent moyen (raf.), km/h Précipitations mm Température à 10 cm °C Température à 20 cm °C Ensoleillement min Rayonnement global W/m²
07:48 21.4 °C 17.6 °C 79 % 13 km/h (19 km/h) 0 mm0 mm 23.4 °C 23.5 °C 4 min 28.1 W/m²
07:42 21.2 °C 17.4 °C 79 % 10 km/h (19 km/h) 0 mm0 mm 23.4 °C 23.5 °C 0 min 11.1 W/m²
07:36 21.1 °C 17.5 °C 80 % 7 km/h (15 km/h) 0 mm0 mm 23.4 °C 23.5 °C 0 min 10.1 W/m²
07:30 21.1 °C 17.5 °C 80 % 8 km/h (14 km/h) 0 mm0 mm 23.4 °C 23.5 °C 0 min 8.3 W/m²
07:24 21.1 °C 17.5 °C 80 % 8 km/h (14 km/h) 0 mm0 mm 23.4 °C 23.5 °C 0 min 5.4 W/m²
07:18 21 °C 17.4 °C 80 % 8 km/h (13 km/h) 0 mm0 mm 23.5 °C 23.5 °C 0 min 1.6 W/m²
07:12 21.2 °C 17.4 °C 79 % 8 km/h (13 km/h) 0 mm0 mm 23.5 °C 23.5 °C 0 min 0 W/m²
07:06 21.4 °C 17.4 °C 78 % 6 km/h (12 km/h) 0 mm0 mm 23.5 °C 23.6 °C 0 min 0 W/m²
07:00 21.5 °C 17.5 °C 78 % 7 km/h (11 km/h) 0 mm0 mm 23.5 °C 23.6 °C 0 min 0 W/m²
06:54 21.6 °C 17.4 °C 77 % 8 km/h (13 km/h) 0 mm0 mm 23.5 °C 23.6 °C 0 min 0 W/m²
06:48 21.7 °C 17.5 °C 77 % 8 km/h (13 km/h) 0 mm0 mm 23.5 °C 23.6 °C 0 min 0 W/m²
06:42 21.8 °C 17.4 °C 76 % 7 km/h (12 km/h) 0 mm0 mm 23.5 °C 23.6 °C 0 min 0 W/m²
06:36 21.9 °C 17.3 °C 75 % 9 km/h (17 km/h) 0 mm0 mm 23.5 °C 23.6 °C 0 min 0 W/m²
06:30 22.1 °C 17.2 °C 74 % 12 km/h (19 km/h) 0 mm0 mm 23.5 °C 23.6 °C 0 min 0 W/m²
06:24 22.2 °C 17.1 °C 73 % 14 km/h (19 km/h) 0 mm0 mm 23.5 °C 23.6 °C 0 min 0 W/m²
06:18 22.3 °C 17 °C 72 % 15 km/h (20 km/h) 0 mm0 mm 23.6 °C 23.6 °C 0 min 0 W/m²
06:12 22.3 °C 17 °C 72 % 14 km/h (20 km/h) 0 mm0 mm 23.6 °C 23.6 °C 0 min 0 W/m²
06:06 22.4 °C 17.1 °C 72 % 15 km/h (22 km/h) 0 mm0 mm 23.6 °C 23.6 °C 0 min 0 W/m²
06:00 22.5 °C 17 °C 71 % 14 km/h (22 km/h) 0 mm0 mm 23.6 °C 23.6 °C 0 min 0 W/m²
05:54 22.4 °C 17.1 °C 72 % 12 km/h (18 km/h) 0 mm0 mm 23.6 °C 23.6 °C 0 min 0 W/m²
05:48 22.5 °C 17 °C 71 % 10 km/h (16 km/h) 0 mm0 mm 23.6 °C 23.6 °C 0 min 0 W/m²
05:42 22.7 °C 17.2 °C 71 % 9 km/h (14 km/h) 0 mm0 mm 23.6 °C 23.6 °C 0 min 0 W/m²
05:36 22.8 °C 17 °C 70 % 8 km/h (12 km/h) 0 mm0 mm 23.6 °C 23.6 °C 0 min 0 W/m²
05:30 22.9 °C 16.9 °C 69 % 8 km/h (12 km/h) 0 mm0 mm 23.6 °C 23.6 °C 0 min 0 W/m²
05:24 22.9 °C 16.7 °C 68 % 8 km/h (12 km/h) 0 mm0 mm 23.6 °C 23.6 °C 0 min 0 W/m²
05:18 23 °C 16.8 °C 68 % 11 km/h (22 km/h) 0 mm0 mm 23.6 °C 23.6 °C 0 min 0 W/m²
05:12 23.2 °C 16.7 °C 67 % 14 km/h (22 km/h) 0 mm0 mm 23.6 °C 23.6 °C 0 min 0 W/m²
05:06 23.2 °C 16.7 °C 67 % 14 km/h (20 km/h) 0 mm0 mm 23.6 °C 23.6 °C 0 min 0 W/m²
05:00 23.2 °C 16.7 °C 67 % 14 km/h (19 km/h) 0 mm0 mm 23.7 °C 23.6 °C 0 min 0 W/m²
04:54 23.2 °C 16.7 °C 67 % 15 km/h (22 km/h) 0 mm0 mm 23.7 °C 23.6 °C 0 min 0 W/m²
04:48 23.2 °C 16.5 °C 66 % 15 km/h (22 km/h) 0 mm0 mm 23.7 °C 23.6 °C 0 min 0 W/m²
04:42 23.2 °C 16.5 °C 66 % 15 km/h (22 km/h) 0 mm0 mm 23.7 °C 23.6 °C 0 min 0 W/m²
04:36 23.1 °C 16.6 °C 67 % 13 km/h (21 km/h) 0 mm0 mm 23.7 °C 23.7 °C 0 min 0 W/m²
04:30 23.1 °C 16.6 °C 67 % 12 km/h (19 km/h) 0 mm0 mm 23.7 °C 23.7 °C 0 min 0 W/m²
04:24 23 °C 16.5 °C 67 % 10 km/h (19 km/h) 0 mm0 mm 23.7 °C 23.7 °C 0 min 0 W/m²
04:18 22.8 °C 16.6 °C 68 % 9 km/h (16 km/h) 0 mm0 mm 23.7 °C 23.7 °C 0 min 0 W/m²
04:12 22.6 °C 16.4 °C 68 % 8 km/h (12 km/h) 0 mm0 mm 23.7 °C 23.7 °C 0 min 0 W/m²
04:06 22.2 °C 16.2 °C 69 % 6 km/h (13 km/h) 0 mm0 mm 23.7 °C 23.7 °C 0 min 0 W/m²
04:00 21.7 °C 15.5 °C 68 % 6 km/h (9 km/h) 0 mm0 mm 23.7 °C 23.7 °C 0 min 0 W/m²
03:54 21.6 °C 15.7 °C 69 % 6 km/h (10 km/h) 0 mm0 mm 23.8 °C 23.7 °C 0 min 0 W/m²
03:48 21.5 °C 15.8 °C 70 % 5 km/h (10 km/h) 0 mm0 mm 23.8 °C 23.7 °C 0 min 0 W/m²
03:42 21.5 °C 15.8 °C 70 % 5 km/h (8 km/h) 0 mm0 mm 23.8 °C 23.7 °C 0 min 0 W/m²
03:36 21.6 °C 15.7 °C 69 % 4 km/h (7 km/h) 0 mm0 mm 23.8 °C 23.7 °C 0 min 0 W/m²
03:30 21.9 °C 15.5 °C 67 % 3 km/h (7 km/h) 0 mm0 mm 23.8 °C 23.7 °C 0 min 0 W/m²
03:24 21.9 °C 15.5 °C 67 % 5 km/h (8 km/h) 0 mm0 mm 23.8 °C 23.7 °C 0 min 0 W/m²
03:18 21.7 °C 15.3 °C 67 % 5 km/h (8 km/h) 0 mm0 mm 23.8 °C 23.7 °C 0 min 0 W/m²
03:12 21.6 °C 15.7 °C 69 % 4 km/h (7 km/h) 0 mm0 mm 23.8 °C 23.7 °C 0 min 0 W/m²
03:06 21.4 °C 15.9 °C 71 % 2 km/h (5 km/h) 0 mm0 mm 23.8 °C 23.7 °C 0 min 0 W/m²
03:00 21.8 °C 15.6 °C 68 % 3 km/h (5 km/h) 0 mm0 mm 23.8 °C 23.7 °C 0 min 0 W/m²
02:54 21.8 °C 15.2 °C 66 % 2 km/h (5 km/h) 0 mm0 mm 23.8 °C 23.7 °C 0 min 0 W/m²
02:48 21.7 °C 16.2 °C 71 % 0 km/h (2 km/h) 0 mm0 mm 23.9 °C 23.7 °C 0 min 0 W/m²
02:42 21.5 °C 16 °C 71 % 0 km/h (2 km/h) 0 mm0 mm 23.9 °C 23.7 °C 0 min 0 W/m²
02:36 22 °C 15.6 °C 67 % 2 km/h (3 km/h) 0 mm0 mm 23.9 °C 23.7 °C 0 min 0 W/m²
02:30 22 °C 15.6 °C 67 % 2 km/h (3 km/h) 0 mm0 mm 23.9 °C 23.7 °C 0 min 0 W/m²
02:24 22 °C 15.6 °C 67 % 2 km/h (4 km/h) 0 mm0 mm 23.9 °C 23.7 °C 0 min 0 W/m²
02:18 21.8 °C 14.9 °C 65 % 3 km/h (4 km/h) 0 mm0 mm 23.9 °C 23.7 °C 0 min 0 W/m²
02:12 22 °C 16 °C 69 % 3 km/h (5 km/h) 0 mm0 mm 23.9 °C 23.7 °C 0 min 0 W/m²
02:06 22 °C 15.1 °C 65 % 3 km/h (5 km/h) 0 mm0 mm 23.9 °C 23.7 °C 0 min 0 W/m²
02:00 21.9 °C 15 °C 65 % 4 km/h (7 km/h) 0 mm0 mm 23.9 °C 23.7 °C 0 min 0 W/m²
01:54 22 °C 15.6 °C 67 % 3 km/h (7 km/h) 0 mm0 mm 24 °C 23.7 °C 0 min 0 W/m²
01:48 22.2 °C 15.3 °C 65 % 0 km/h (3 km/h) 0 mm0 mm 24 °C 23.7 °C 0 min 0 W/m²
01:42 22.3 °C 14.9 °C 63 % 2 km/h (4 km/h) 0 mm0 mm 24 °C 23.7 °C 0 min 0 W/m²
01:36 22.5 °C 14.9 °C 62 % 3 km/h (6 km/h) 0 mm0 mm 24 °C 23.7 °C 0 min 0 W/m²
01:30 22.4 °C 14.8 °C 62 % 4 km/h (8 km/h) 0 mm0 mm 24 °C 23.8 °C 0 min 0 W/m²
01:24 22.2 °C 14.8 °C 63 % 4 km/h (7 km/h) 0 mm0 mm 24 °C 23.8 °C 0 min 0 W/m²
01:18 22.6 °C 14.7 °C 61 % 4 km/h (8 km/h) 0 mm0 mm 24 °C 23.7 °C 0 min 0 W/m²
01:12 22.6 °C 14.4 °C 60 % 4 km/h (7 km/h) 0 mm0 mm 24 °C 23.8 °C 0 min 0 W/m²
01:06 22.5 °C 14.3 °C 60 % 3 km/h (6 km/h) 0 mm0 mm 24 °C 23.8 °C 0 min 0 W/m²
01:00 22.7 °C 14.3 °C 59 % 3 km/h (7 km/h) 0 mm0 mm 24.1 °C 23.8 °C 0 min 0 W/m²
00:54 23 °C 14.8 °C 60 % 3 km/h (9 km/h) 0 mm0 mm 24.1 °C 23.8 °C 0 min 0 W/m²
00:48 23.2 °C 14.2 °C 57 % 5 km/h (9 km/h) 0 mm0 mm 24.1 °C 23.8 °C 0 min 0 W/m²
00:42 23.5 °C 14.2 °C 56 % 5 km/h (9 km/h) 0 mm0 mm 24.1 °C 23.8 °C 0 min 0 W/m²
00:36 23.6 °C 14 °C 55 % 4 km/h (10 km/h) 0 mm0 mm 24.1 °C 23.8 °C 0 min 0 W/m²
00:30 23.9 °C 14 °C 54 % 5 km/h (11 km/h) 0 mm0 mm 24.1 °C 23.8 °C 0 min 0 W/m²
00:24 24 °C 14.1 °C 54 % 8 km/h (13 km/h) 0 mm0 mm 24.1 °C 23.8 °C 0 min 0 W/m²
00:18 24.4 °C 13.9 °C 52 % 9 km/h (14 km/h) 0 mm0 mm 24.1 °C 23.8 °C 0 min 0 W/m²
00:12 24.5 °C 14 °C 52 % 8 km/h (14 km/h) 0 mm0 mm 24.1 °C 23.7 °C 0 min 0 W/m²
00:06 24.5 °C 14 °C 52 % 7 km/h (14 km/h) 0 mm0 mm 24.1 °C 23.7 °C 0 min 0 W/m²
00:00 24.5 °C 14 °C 52 % 6 km/h (14 km/h) 0 mm0 mm 24.2 °C 23.7 °C 0 min 0 W/m²

Données via Météo-France

Relevés météo à Etoile

Cette page rassemble les observations de la station de Etoile : température, humidité, vent, précipitations et pression atmosphérique. Les graphiques facilitent le suivi de la journée, tandis que le tableau donne accès aux mesures horaires et infra-horaires disponibles.

Pour replacer ces mesures dans leur contexte, consultez la climatologie de Etoile ainsi que ses normales et records. Retrouvez aussi la carte des observations météo en temps réel.